NCAR-RAP Real-Time Weather Data

Output produced by METARs form (17 September 2019  16:28 UTC)
found at http://weather.rap.ucar.edu/surface/
 
KRFD 171612Z 12005KT 10SM BKN015 22/18 A3020 RMK AO2 T02220183
KRFD 171605Z 14007KT 10SM SCT015 23/19 A3020 RMK AO2 T02280189
KRFD 171554Z 13007KT 9SM BKN014 22/18 A3020 RMK AO2 SLP225 T02220183
KRFD 171454Z 15007KT 7SM OVC010 21/18 A3020 RMK AO2 SLP225 T02060183 53005
KRFD 171401Z 13008KT 4SM BR OVC007 19/18 A3020 RMK AO2 T01940178
KRFD 171354Z VRB04KT 2SM BR OVC007 19/17 A3020 RMK AO2 SFC VIS 4 SLP223 T01890172
KRFD 171254Z 12006KT 2SM BR OVC005 18/17 A3019 RMK AO2 SLP221 T01830172
KRFD 171226Z 11004KT 2SM BR OVC005 18/17 A3019 RMK AO2 T01830172
KRFD 171154Z 13005KT 2SM BR OVC004 18/17 A3019 RMK AO2 SLP220 T01780172 10178 20167 50008
KRFD 171125Z 13006KT 2SM BR OVC004 18/17 A3018 RMK AO2 T01780172
KRFD 171054Z 14004KT 2SM BR OVC005 18/17 A3019 RMK AO2 SFC VIS 3 PRESRR SLP220 T01780172
KRFD 171050Z 13006KT 2SM BR OVC005 18/17 A3018 RMK AO2 SFC VIS 3
KRFD 171033Z 13008KT 2SM BR OVC003 18/17 A3016 RMK AO2 T01780172
KRFD 170954Z 12005KT 1 1/2SM BR OVC003 18/17 A3016 RMK AO2 TWR VIS 2 SLP210 T01780172
KRFD 170942Z 12005KT 1 1/2SM BR OVC003 18/17 A3016 RMK AO2 T01780172
KRFD 170854Z 13009KT 1 1/4SM BR OVC002 17/17 A3017 RMK AO2 TWR VIS 1 1/2 SLP212 T01720172 53005
KRFD 170817Z 12006KT 1SM R01/P6000FT BR OVC002 17/17 A3017 RMK AO2 T01720172
KRFD 170754Z 13005KT 3/4SM R01/5500VP6000FT BR OVC002 17/17 A3016 RMK AO2 TWR VIS 1 SLP210 T01720172
KRFD 170715Z 13005KT 3/4SM R01/5000VP6000FT BR OVC002 17/17 A3017 RMK AO2 TWR VIS 1 T01670167
KRFD 170654Z 11003KT 1SM R01/5000VP6000FT BR OVC003 17/16 A3016 RMK AO2 SLP209 T01670161
KRFD 170650Z 08005KT 1SM R01/P6000FT BR BKN003 OVC250 17/16 A3016 RMK AO2 SFC VIS 2
KRFD 170638Z 10004KT 2SM BR SCT003 OVC250 17/17 A3016 RMK AO2 SFC VIS 3 T01720167
KRFD 170554Z 11004KT 8SM SCT250 18/17 A3015 RMK AO2 SLP207 T01780167 10233 20167 402780167 53006
KRFD 170454Z 00000KT 10SM FEW250 18/17 A3014 RMK AO2 SLP202 T01830167
KRFD 170354Z 00000KT 10SM SCT250 19/17 A3015 RMK AO2 SLP204 T01890172
KRFD 170254Z 13003KT 10SM SCT250 19/17 A3014 RMK AO2 SLP202 T01940172 53004
KRFD 170054Z 09003KT 10SM SCT250 22/17 A3012 RMK AO2 SLP198 T02170167
KRFD 162354Z 10005KT 10SM BKN250 23/17 A3012 RMK AO2 SLP196 T02330167 10278 20233 53003
KRFD 162254Z 12008KT 10SM SCT250 26/18 A3012 RMK AO2 SLP194 T02560183
KRFD 162154Z 11005KT 10SM SCT250 27/18 A3011 RMK AO2 SLP191 T02720183
KRFD 162054Z 08005KT 10SM SCT250 28/17 A3011 RMK AO2 SLP192 T02780172 56011
KRFD 161954Z 08007KT 10SM FEW250 28/18 A3012 RMK AO2 SLP193 T02780183